createdAt,value
2023-07-24T09:46:46.177Z,90.30
2023-07-24T09:49:14.386Z,90.40
2023-07-24T09:51:44.832Z,90.40
2023-07-24T09:54:18.390Z,90.60
2023-07-24T09:56:51.935Z,90.60
2023-07-24T09:59:24.565Z,90.30
2023-07-24T10:01:52.565Z,89.00
2023-07-24T10:04:20.231Z,90.10
2023-07-24T10:06:47.372Z,89.00
2023-07-24T10:09:14.298Z,88.70
2023-07-24T10:11:40.935Z,88.10
2023-07-24T10:14:07.898Z,88.20
2023-07-24T10:16:34.675Z,87.90
2023-07-24T10:19:01.323Z,87.30
2023-07-24T10:21:29.501Z,90.10
2023-07-24T10:24:00.665Z,87.30
2023-07-24T10:26:27.812Z,86.10
2023-07-24T10:28:55.022Z,86.20
2023-07-24T10:31:23.327Z,84.80
2023-07-24T10:33:50.904Z,84.50
2023-07-24T10:36:20.258Z,84.10
2023-07-24T10:38:47.345Z,83.50
2023-07-24T10:41:14.241Z,83.30
2023-07-24T10:43:41.756Z,82.40
2023-07-24T10:46:08.620Z,82.90
2023-07-24T10:48:35.258Z,82.60
2023-07-24T10:51:07.607Z,81.60
2023-07-24T10:53:35.528Z,81.80
2023-07-24T10:56:02.355Z,80.20
2023-07-24T10:58:29.258Z,80.30
2023-07-24T11:00:56.969Z,78.40
2023-07-24T11:03:24.688Z,77.40
2023-07-24T11:05:51.388Z,77.60
2023-07-24T11:08:19.624Z,78.10
2023-07-24T11:10:47.465Z,78.40
2023-07-24T11:13:14.840Z,77.40
2023-07-24T11:15:41.568Z,76.50
2023-07-24T11:18:09.552Z,76.50
2023-07-24T11:20:40.134Z,77.70
2023-07-24T11:23:06.857Z,77.30
2023-07-24T11:25:33.783Z,76.50
2023-07-24T11:28:00.516Z,77.40
2023-07-24T11:30:27.126Z,76.40
2023-07-24T11:32:53.913Z,75.80
2023-07-24T11:35:20.792Z,75.90
2023-07-24T11:37:47.465Z,76.00
2023-07-24T11:40:15.955Z,77.00
2023-07-24T11:42:46.212Z,76.90
2023-07-24T11:45:13.151Z,77.10
2023-07-24T11:48:05.898Z,78.50
2023-07-24T11:50:42.485Z,76.90
2023-07-24T11:53:19.408Z,77.20
2023-07-24T11:55:46.024Z,77.30
2023-07-24T11:58:15.308Z,77.70
2023-07-24T12:00:41.951Z,78.40
2023-07-24T12:03:09.503Z,79.10
2023-07-24T12:05:42.967Z,79.60
2023-07-24T12:08:09.840Z,79.20
2023-07-24T12:10:40.269Z,81.80
2023-07-24T12:13:07.596Z,85.90
2023-07-24T12:15:38.550Z,87.10
2023-07-24T12:18:06.029Z,88.90
2023-07-24T12:20:32.738Z,91.60
2023-07-24T12:22:59.589Z,92.00
2023-07-24T12:50:00.270Z,95.90
2023-07-24T12:52:27.306Z,96.00
2023-07-24T12:55:01.713Z,95.20
2023-07-24T12:57:28.713Z,95.60
2023-07-24T12:59:55.351Z,95.80
2023-07-24T13:02:22.039Z,96.20
2023-07-24T13:04:48.724Z,97.00
2023-07-24T13:07:15.354Z,96.10
2023-07-24T13:09:41.953Z,96.40
2023-07-24T13:12:09.063Z,97.40
2023-07-24T13:14:35.653Z,97.40
2023-07-24T13:17:02.793Z,97.70
2023-07-24T13:19:29.480Z,97.00
2023-07-24T13:21:56.140Z,96.70
2023-07-24T13:24:22.794Z,96.10
2023-07-24T13:26:49.412Z,96.50
2023-07-24T13:29:16.158Z,97.10
2023-07-24T13:31:42.875Z,96.20
2023-07-24T13:34:09.591Z,96.10
2023-07-24T13:36:36.208Z,96.20
2023-07-24T13:39:03.097Z,97.20
2023-07-24T13:41:30.105Z,96.20
2023-07-24T13:43:56.960Z,95.50
2023-07-24T14:30:14.940Z,95.50
2023-07-24T14:32:41.972Z,96.10
2023-07-24T14:35:08.784Z,96.10
2023-07-24T14:37:35.460Z,95.50
2023-07-24T14:40:02.207Z,94.70
2023-07-24T14:42:29.018Z,95.50
2023-07-24T14:44:55.717Z,95.30
2023-07-24T14:47:22.303Z,93.70
2023-07-24T14:49:48.886Z,93.80
2023-07-24T14:52:15.524Z,94.10
2023-07-24T14:54:42.167Z,94.20
2023-07-24T14:57:23.629Z,94.00
2023-07-24T14:59:52.531Z,93.80
2023-07-24T15:02:19.729Z,93.30
2023-07-24T15:04:46.441Z,92.80
2023-07-24T15:07:13.078Z,93.30
2023-07-24T15:09:39.685Z,92.30
2023-07-24T15:12:06.464Z,93.00
2023-07-24T15:14:33.250Z,93.30
2023-07-24T15:16:59.870Z,92.40
2023-07-24T15:19:26.498Z,91.70
2023-07-24T15:21:53.219Z,92.00
2023-07-24T15:24:20.308Z,92.80
2023-07-24T15:26:47.025Z,92.70
2023-07-24T15:29:18.938Z,92.90
2023-07-24T15:31:46.455Z,92.60
2023-07-24T15:34:13.137Z,93.10
2023-07-24T15:36:39.795Z,93.20
2023-07-24T15:39:06.503Z,94.60
2023-07-24T15:41:33.956Z,93.70
2023-07-24T15:44:00.672Z,92.70
2023-07-24T15:46:29.886Z,92.70
2023-07-24T15:48:57.160Z,92.70
2023-07-24T15:51:23.875Z,92.30
2023-07-24T15:53:50.641Z,92.80
2023-07-24T15:56:17.828Z,93.20
2023-07-24T15:58:44.810Z,92.70
2023-07-24T16:01:11.752Z,93.60
2023-07-24T16:03:38.676Z,91.60
2023-07-24T16:06:06.174Z,93.80
2023-07-24T16:08:32.830Z,94.10
2023-07-24T16:10:59.497Z,94.10
2023-07-24T16:13:26.153Z,93.50
2023-07-24T16:15:52.783Z,93.10
2023-07-24T16:18:22.397Z,93.40
2023-07-24T16:20:49.031Z,94.10
2023-07-24T16:23:15.691Z,94.40
2023-07-24T16:25:42.335Z,92.60
2023-07-24T16:28:08.962Z,94.20
2023-07-24T16:30:35.611Z,93.80
2023-07-24T16:33:02.221Z,94.80
2023-07-24T16:35:28.841Z,92.70
2023-07-24T16:37:55.774Z,92.40
2023-07-24T16:40:22.407Z,91.90
2023-07-24T16:42:51.828Z,92.00
2023-07-24T16:47:52.608Z,92.30
2023-07-24T16:50:19.375Z,92.00
2023-07-24T16:52:46.051Z,91.90
2023-07-24T16:55:12.678Z,91.50
2023-07-24T16:57:39.442Z,92.10
2023-07-24T17:00:06.999Z,92.00
2023-07-24T17:02:34.815Z,92.40
2023-07-24T17:05:01.680Z,92.30
2023-07-24T17:07:28.275Z,92.30
2023-07-24T17:09:54.961Z,92.50
2023-07-24T17:12:21.682Z,92.20
2023-07-24T17:14:48.285Z,92.50
2023-07-24T17:17:14.992Z,93.00
2023-07-24T17:19:42.964Z,92.40
2023-07-24T17:22:09.790Z,92.60
2023-07-24T17:24:36.846Z,93.50
2023-07-24T17:27:03.734Z,95.20
